Bodega Marine Reserve, California Weather observations

Data are for 10 minute period ending at time listed.
 Day   Time   Solar   Ave.   Ave.  Ave.  Vector  Max.   Baro.   Total    
  of    of     Rad.   Air    Rel.  Wind   Wind   Wind  Press.  Precip.   
Year   Day            Temp.  Hum.  Speed  Dir.   Gust                    
2016   (PST)  Kw/m2    F      %     mph   deg.    mph    mb.     in.     
-------------------------------------------------------------------------
 179   13:10   0.92   57.5    76   23.6   302    28.5   1014.2    0.00 
 179   13:20   0.92   57.6    76   23.2   302    29.6   1013.9    0.00 
 179   13:30   0.92   57.5    76   23.9   303    29.8   1013.9    0.00 
 179   13:40   0.92   57.5    76   24.4   301    29.1   1013.9    0.00 
 179   13:50   0.92   57.6    76   23.4   303    29.1   1013.9    0.00 
 179   14:00   0.91   57.9    75   21.8   305    28.9   1013.9    0.00 
 179   14:10   0.89   58.3    74   22.9   302    28.7   1013.9    0.00 
 179   14:20   0.89   58.3    74   21.8   311    26.2   1013.9    0.00 
 179   14:30   0.88   58.4    74   20.0   314    26.6   1013.9    0.00 
 179   14:40   0.88   59.4    71   24.0   304    30.8   1013.5    0.00 
 179   14:50   0.87   58.6    73   26.6   297    31.9   1013.2    0.00 
 179   15:00   0.50   58.5    73   25.1   299    30.5   1013.5    0.00 
 179   15:10   0.59   58.9    72   21.2   307    27.2   1013.5    0.00 
 179   15:20   0.72   58.9    72   20.9   306    27.6   1013.5    0.00 
 179   15:30   0.22   59.5    71   17.5   315    23.5   1013.9    0.00 
 179   15:40   0.13   59.1    71   19.7   318    27.0   1013.5    0.00 
 179   15:50   0.24   59.8    70   16.2   323    23.5   1013.5    0.00 
 179   16:00   0.55   60.1    70   16.0   330    22.1   1013.5    0.00 
 179   16:10   0.62   60.1    70   17.7   326    27.2   1013.5    0.00 
 179   16:20   0.60   58.7    73   20.3   317    28.8   1013.2    0.00 
 179   16:30   0.58   59.3    71   23.7   303    31.4   1012.9    0.00 
 179   16:40   0.52   58.7    73   23.2   304    30.5   1012.9    0.00 
 179   16:50   0.61   58.8    72   20.9   306    28.9   1012.9    0.00 
 179   17:00   0.24   58.4    73   21.2   308    28.0   1012.9    0.00 
 179   17:10   0.39   58.1    74   21.5   310    27.6   1012.9    0.00 
 179   17:20   0.55   58.0    74   18.9   312    25.4   1012.9    0.00 
 179   17:30   0.52   57.8    74   19.8   314    27.2   1012.9    0.00 
 179   17:40   0.49   57.2    75   18.4   317    25.3   1012.9    0.00 
 179   17:50   0.46   57.2    75   16.9   320    22.6   1012.9    0.00 
 179   18:00   0.43   56.4    77   21.0   315    28.4   1012.5    0.00 
 179   18:10   0.40   56.2    77   19.5   316    26.2   1012.5    0.00 
 179   18:20   0.36   55.8    78   20.1   314    25.7   1012.5    0.00 
 179   18:30   0.33   55.2    80   22.6   313    28.9   1012.5    0.00 
 179   18:40   0.30   54.8    81   22.7   312    28.6   1012.2    0.00 
 179   18:50   0.27   54.4    82   22.0   311    28.2   1012.2    0.00 
 179   19:00   0.24   54.2    82   19.7   314    26.0   1012.5    0.00 
 179   19:10   0.19   53.8    83   20.4   314    26.1   1012.5    0.00 
 179   19:20   0.15   53.2    84   22.5   311    28.0   1012.5    0.00 
 179   19:30   0.11   52.6    86   21.6   312    27.1   1012.5    0.00 
 179   19:40   0.07   52.4    87   22.8   308    28.9   1012.5    0.00 
 179   19:50   0.04   51.9    88   24.2   307    30.0   1012.2    0.00 
 179   20:00   0.03   51.6    89   23.1   308    28.4   1012.2    0.00 
 179   20:10   0.01   51.4    90   23.4   307    30.0   1012.2    0.00 
 179   20:20   0.02   51.3    90   22.6   309    27.7   1012.2    0.00 
 179   20:30   0.01   51.3    90   23.9   306    28.6   1012.2    0.00 
 179   20:40   0.00   51.1    90   21.8   306    27.7   1012.2    0.00 
 179   20:50   0.00   51.1    90   21.0   308    27.5   1012.2    0.00 
 179   21:00   0.00   51.0    91   21.4   308    26.7   1012.2    0.00 
 179   21:10   0.00   51.0    91   22.5   310    28.1   1012.2    0.00 
 179   21:20   0.00   51.0    91   22.8   309    27.0   1012.2    0.00 
 179   21:30   0.00   51.0    91   22.5   308    26.6   1012.2    0.00 
 179   21:40   0.00   51.0    91   21.4   307    26.8   1012.2    0.00 
 179   21:50   0.00   50.9    91   20.5   307    26.1   1012.5    0.00 
 179   22:00   0.00   50.8    91   20.8   304    25.7   1012.5    0.00 
 179   22:10   0.00   50.8    91   21.4   305    25.4   1012.5    0.00 
 179   22:20   0.00   50.7    91   21.0   307    26.0   1012.5    0.00 
 179   22:30   0.00   50.6    91   21.4   308    26.3   1012.5    0.00 
 179   22:40   0.00   50.5    91   21.3   308    26.8   1012.5    0.00 
 179   22:50   0.00   50.5    92   21.2   308    25.7   1012.5    0.00 
 179   23:00   0.00   50.4    92   19.8   306    25.6   1012.2    0.00 
 179   23:10   0.00   50.2    92   20.6   307    25.5   1012.2    0.00 
 179   23:20   0.00   50.2    92   20.7   307    25.4   1012.2    0.00 
 179   23:30   0.00   50.2    92   20.1   307    25.1   1012.2    0.00 
 179   23:40   0.00   50.2    92   20.2   308    24.6   1012.2    0.00 
 179   23:50   0.00   50.1    92   19.4   309    23.9   1012.2    0.00 
 180    0:00   0.00   50.1    92   20.9   308    26.3   1012.2    0.00 
 180    0:10   0.00   50.1    92   20.2   307    25.9   1012.2    0.00 
 180    0:20   0.00   50.0    92   20.7   308    25.0   1012.2    0.00 
 180    0:30   0.00   50.0    92   19.0   308    23.8   1012.2    0.00 
 180    0:40   0.00   49.9    93   19.5   308    24.1   1012.2    0.00 
 180    0:50   0.00   49.9    93   20.7   306    26.2   1011.9    0.00 
 180    1:00   0.00   49.9    93   19.9   306    24.9   1011.9    0.00 
 180    1:10   0.00   49.7    93   19.9   305    25.2   1012.2    0.00 
 180    1:20   0.00   49.7    93   19.1   305    24.8   1012.2    0.00 
 180    1:30   0.00   49.6    93   19.4   304    23.8   1012.2    0.00 
 180    1:40   0.00   49.6    93   19.5   303    24.5   1011.9    0.00 
 180    1:50   0.00   49.6    93   19.6   303    24.7   1011.9    0.00 
 180    2:00   0.00   49.5    93   19.1   303    23.2   1011.9    0.00 
 180    2:10   0.00   49.5    94   20.0   303    24.8   1011.9    0.00 
 180    2:20   0.00   49.5    94   20.0   302    25.6   1011.9    0.00 
 180    2:30   0.00   49.5    94   19.8   302    24.0   1011.9    0.00 
 180    2:40   0.00   49.5    94   20.6   299    26.6   1011.9    0.00 
 180    2:50   0.00   49.4    94   21.3   299    26.4   1011.9    0.00 
 180    3:00   0.00   49.5    94   21.2   301    25.9   1011.9    0.00 
 180    3:10   0.00   49.5    94   19.3   302    26.2   1011.9    0.00 
 180    3:20   0.00   49.4    94   20.5   301    27.9   1011.9    0.00 
 180    3:30   0.00   49.3    94   22.0   301    28.1   1011.9    0.00 
 180    3:40   0.00   49.1    94   21.4   303    27.5   1011.9    0.00 
 180    3:50   0.00   48.9    95   21.9   304    28.9   1011.9    0.00 
 180    4:00   0.00   48.7    95   20.4   305    26.6   1011.9    0.00 
 180    4:10   0.00   48.7    95   20.4   303    28.2   1011.9    0.00 
 180    4:20   0.00   48.6    95   21.0   303    27.9   1011.9    0.00 
 180    4:30   0.00   48.6    96   20.2   303    27.2   1011.9    0.00 
 180    4:40   0.00   48.6    96   18.5   302    24.8   1011.9    0.00 
 180    4:50   0.00   48.6    96   17.4   305    25.5   1011.9    0.00 
 180    5:00   0.00   48.5    96   16.7   305    22.3   1012.2    0.00 
 180    5:10   0.00   48.4    96   16.0   304    22.7   1012.2    0.00 
 180    5:20   0.00   48.3    96   19.3   301    25.5   1011.9    0.00 
 180    5:30   0.00   48.2    96   19.0   302    25.2   1011.9    0.00 
 180    5:40   0.00   48.3    96   18.1   305    24.8   1011.9    0.00 
 180    5:50   0.00   48.2    96   16.4   307    24.0   1012.2    0.00 
 180    6:00   0.00   48.2    96   15.6   308    22.9   1012.2    0.00 
 180    6:10   0.00   48.1    96   16.6   309    23.0   1012.2    0.00 
 180    6:20   0.01   48.1    96   15.7   310    23.2   1012.5    0.00 
 180    6:30   0.01   48.1    96   15.8   313    24.4   1012.5    0.00 
 180    6:40   0.02   48.1    96   15.5   313    20.9   1012.9    0.00 
 180    6:50   0.03   48.2    96   15.2   314    21.3   1012.9    0.00 
 180    7:00   0.04   48.2    96   13.5   314    20.3   1012.9    0.00 
 180    7:10   0.05   48.2    96   12.0   317    17.0   1013.2    0.00 
 180    7:20   0.07   48.3    96   12.5   309    16.1   1013.2    0.00 
 180    7:30   0.07   48.5    96   11.7   309    15.1   1013.2    0.00 
 180    7:40   0.07   48.5    96   12.1   312    18.2   1013.2    0.00 
 180    7:50   0.07   48.7    96   12.0   311    15.6   1013.2    0.00 
 180    8:00   0.07   48.6    97   11.7   312    16.5   1013.2    0.00 
 180    8:10   0.07   48.7    96   12.0   312    17.0   1013.2    0.00 
 180    8:20   0.07   49.1    97   11.6   311    15.8   1013.5    0.00 
 180    8:30   0.07   49.2    96   12.5   313    17.2   1013.5    0.00 
 180    8:40   0.07   49.5    97   10.8   316    14.8   1013.9    0.00 
 180    8:50   0.07   49.8    96   12.3   312    16.4   1013.9    0.00 
 180    9:00   0.07   50.2    96   12.8   312    17.0   1013.9    0.00 
 180    9:10   0.07   50.4    96   12.9   310    17.2   1013.9    0.00 
 180    9:20   0.07   51.0    96   11.7   307    15.8   1013.9    0.00 
 180    9:30   0.07   51.4    95   12.3   305    15.9   1013.9    0.00 
 180    9:40   0.07   51.5    94   13.6   301    17.1   1013.9    0.00 
 180    9:50   0.07   52.0    93   12.3   304    16.8   1013.9    0.00 
 180   10:00   0.07   52.6    91   12.9   307    17.8   1013.9    0.00 
 180   10:10   0.07   53.1    88   13.6   306    18.2   1013.5    0.00 
 180   10:20   0.07   53.1    87   14.5   305    18.7   1013.9    0.00 
 180   10:30   0.07   54.0    85   14.2   304    19.6   1013.9    0.00 
 180   10:40   0.07   53.9    84   14.8   302    19.1   1013.9    0.00 
 180   10:50   0.07   55.0    81   14.4   302    19.0   1013.5    0.00 
 180   11:00   0.07   55.6    80   14.0   305    18.9   1013.5    0.00 
 180   11:10   0.23   56.0    79   14.5   306    19.1   1013.9    0.00 
 180   11:20   0.77   55.7    23   15.3   303    21.2     0.0   1478.50 
 180   11:30   0.78   55.6    79   16.0   305    21.5   1013.9    0.00 
 180   11:40   0.79   55.0    80   16.5   304    22.9   1013.9    0.00 
 180   11:50   0.80   55.2    80   17.6   304    22.6   1013.9    0.00 
 180   12:00   0.82   55.0    81   17.7   303    21.9   1014.2    0.00 
 180   12:10   0.82   54.8    81   17.9   304    22.9   1014.2    0.00 
 180   12:20   0.80   55.3    80   18.3   303    23.9   1014.2    0.00 
 180   12:30   0.81   55.3    80   18.7   305    24.9   1013.9    0.00 
 180   12:40   0.79   55.0    80   19.2   304    24.3   1014.2    0.00 
 180   12:50   0.78   55.3    80   18.1   306    23.8   1014.2    0.00 
 180   13:00   0.76   55.5    80   18.1   305    23.4   1014.2    0.00 

Return to Bodega Marine Reserve graphs page.


Western Regional Climate Center,wrcc@dri.edu